sensor_id;sensor_type;location;lat;lon;timestamp;P1;durP1;ratioP1;P2;durP2;ratioP2
1775;SDS011;885;42.626;23.200;2023-07-31T00:02:25;7.93;;;6.17;;
1775;SDS011;885;42.626;23.200;2023-07-31T00:04:52;7.40;;;5.90;;
1775;SDS011;885;42.626;23.200;2023-07-31T00:07:19;5.43;;;4.93;;
1775;SDS011;885;42.626;23.200;2023-07-31T00:09:45;6.40;;;5.37;;
1775;SDS011;885;42.626;23.200;2023-07-31T00:12:12;8.50;;;5.13;;
1775;SDS011;885;42.626;23.200;2023-07-31T00:14:39;6.00;;;5.50;;
1775;SDS011;885;42.626;23.200;2023-07-31T00:17:07;6.20;;;5.60;;
1775;SDS011;885;42.626;23.200;2023-07-31T00:19:34;5.70;;;5.20;;
1775;SDS011;885;42.626;23.200;2023-07-31T00:22:00;6.10;;;5.50;;
1775;SDS011;885;42.626;23.200;2023-07-31T00:24:27;5.93;;;5.43;;
1775;SDS011;885;42.626;23.200;2023-07-31T00:26:54;6.17;;;5.57;;
1775;SDS011;885;42.626;23.200;2023-07-31T00:29:20;5.90;;;5.40;;
1775;SDS011;885;42.626;23.200;2023-07-31T00:31:47;5.43;;;4.83;;
1775;SDS011;885;42.626;23.200;2023-07-31T00:34:15;6.00;;;5.40;;
1775;SDS011;885;42.626;23.200;2023-07-31T00:36:42;6.40;;;5.80;;
1775;SDS011;885;42.626;23.200;2023-07-31T00:39:09;6.37;;;5.77;;
1775;SDS011;885;42.626;23.200;2023-07-31T00:41:36;5.90;;;5.40;;
1775;SDS011;885;42.626;23.200;2023-07-31T00:44:02;5.83;;;5.30;;
1775;SDS011;885;42.626;23.200;2023-07-31T00:46:29;6.63;;;5.50;;
1775;SDS011;885;42.626;23.200;2023-07-31T00:48:56;8.20;;;5.60;;
1775;SDS011;885;42.626;23.200;2023-07-31T00:51:25;7.17;;;5.77;;
1775;SDS011;885;42.626;23.200;2023-07-31T00:53:52;6.63;;;6.13;;
1775;SDS011;885;42.626;23.200;2023-07-31T00:56:21;5.87;;;5.27;;
1775;SDS011;885;42.626;23.200;2023-07-31T00:58:48;6.83;;;6.00;;
1775;SDS011;885;42.626;23.200;2023-07-31T01:01:15;6.33;;;5.73;;
1775;SDS011;885;42.626;23.200;2023-07-31T01:03:41;7.03;;;6.37;;
1775;SDS011;885;42.626;23.200;2023-07-31T01:06:11;6.60;;;6.00;;
1775;SDS011;885;42.626;23.200;2023-07-31T01:08:48;7.47;;;6.70;;
1775;SDS011;885;42.626;23.200;2023-07-31T01:11:25;8.60;;;7.80;;
1775;SDS011;885;42.626;23.200;2023-07-31T01:13:55;6.77;;;6.07;;
1775;SDS011;885;42.626;23.200;2023-07-31T01:16:22;8.00;;;7.20;;
1775;SDS011;885;42.626;23.200;2023-07-31T01:18:48;7.77;;;6.97;;
1775;SDS011;885;42.626;23.200;2023-07-31T01:21:30;12.70;;;10.30;;
1775;SDS011;885;42.626;23.200;2023-07-31T01:24:26;12.23;;;11.03;;
1775;SDS011;885;42.626;23.200;2023-07-31T01:26:58;13.00;;;11.30;;
1775;SDS011;885;42.626;23.200;2023-07-31T01:29:32;12.60;;;10.00;;
1775;SDS011;885;42.626;23.200;2023-07-31T01:32:04;13.60;;;12.20;;
1775;SDS011;885;42.626;23.200;2023-07-31T01:34:34;16.70;;;14.90;;
1775;SDS011;885;42.626;23.200;2023-07-31T01:37:02;17.97;;;16.10;;
1775;SDS011;885;42.626;23.200;2023-07-31T01:39:29;17.83;;;15.87;;
1775;SDS011;885;42.626;23.200;2023-07-31T01:41:57;15.60;;;13.93;;
1775;SDS011;885;42.626;23.200;2023-07-31T01:44:24;17.93;;;16.17;;
1775;SDS011;885;42.626;23.200;2023-07-31T01:46:50;18.20;;;16.37;;
1775;SDS011;885;42.626;23.200;2023-07-31T01:49:17;19.00;;;17.07;;
1775;SDS011;885;42.626;23.200;2023-07-31T01:51:44;20.27;;;18.13;;
1775;SDS011;885;42.626;23.200;2023-07-31T01:54:10;23.07;;;20.70;;
1775;SDS011;885;42.626;23.200;2023-07-31T01:56:36;21.47;;;19.17;;
1775;SDS011;885;42.626;23.200;2023-07-31T01:59:04;20.37;;;18.17;;
1775;SDS011;885;42.626;23.200;2023-07-31T02:01:31;19.70;;;17.70;;
1775;SDS011;885;42.626;23.200;2023-07-31T02:03:58;19.23;;;17.03;;
1775;SDS011;885;42.626;23.200;2023-07-31T02:06:25;19.00;;;17.00;;
1775;SDS011;885;42.626;23.200;2023-07-31T02:08:51;17.80;;;15.90;;
1775;SDS011;885;42.626;23.200;2023-07-31T02:11:18;18.40;;;16.47;;
1775;SDS011;885;42.626;23.200;2023-07-31T02:13:45;21.10;;;18.90;;
1775;SDS011;885;42.626;23.200;2023-07-31T02:16:13;27.30;;;24.30;;
1775;SDS011;885;42.626;23.200;2023-07-31T02:18:40;30.10;;;24.90;;
1775;SDS011;885;42.626;23.200;2023-07-31T02:21:07;25.87;;;22.40;;
1775;SDS011;885;42.626;23.200;2023-07-31T02:23:36;27.10;;;24.20;;
1775;SDS011;885;42.626;23.200;2023-07-31T02:26:03;27.10;;;24.23;;
1775;SDS011;885;42.626;23.200;2023-07-31T02:28:29;27.73;;;24.83;;
1775;SDS011;885;42.626;23.200;2023-07-31T02:30:56;26.57;;;22.83;;
1775;SDS011;885;42.626;23.200;2023-07-31T02:33:24;25.90;;;22.70;;
1775;SDS011;885;42.626;23.200;2023-07-31T02:35:51;26.90;;;24.10;;
1775;SDS011;885;42.626;23.200;2023-07-31T02:38:18;25.70;;;22.33;;
1775;SDS011;885;42.626;23.200;2023-07-31T02:40:44;27.53;;;24.63;;
1775;SDS011;885;42.626;23.200;2023-07-31T02:43:11;27.00;;;24.13;;
1775;SDS011;885;42.626;23.200;2023-07-31T02:45:38;32.13;;;25.73;;
1775;SDS011;885;42.626;23.200;2023-07-31T02:48:04;27.33;;;23.70;;
1775;SDS011;885;42.626;23.200;2023-07-31T02:50:33;30.27;;;25.50;;
1775;SDS011;885;42.626;23.200;2023-07-31T02:52:59;28.93;;;25.83;;
1775;SDS011;885;42.626;23.200;2023-07-31T02:55:26;26.73;;;23.97;;
1775;SDS011;885;42.626;23.200;2023-07-31T02:57:53;30.70;;;25.70;;
1775;SDS011;885;42.626;23.200;2023-07-31T03:00:20;29.63;;;25.40;;
1775;SDS011;885;42.626;23.200;2023-07-31T03:02:47;32.40;;;26.10;;
1775;SDS011;885;42.626;23.200;2023-07-31T03:05:13;30.37;;;26.93;;
1775;SDS011;885;42.626;23.200;2023-07-31T03:07:42;29.87;;;25.00;;
1775;SDS011;885;42.626;23.200;2023-07-31T03:10:08;31.67;;;27.47;;
1775;SDS011;885;42.626;23.200;2023-07-31T03:12:35;29.67;;;26.30;;
1775;SDS011;885;42.626;23.200;2023-07-31T03:15:02;30.93;;;25.63;;
1775;SDS011;885;42.626;23.200;2023-07-31T03:17:29;31.60;;;26.47;;
1775;SDS011;885;42.626;23.200;2023-07-31T03:19:56;28.77;;;25.63;;
1775;SDS011;885;42.626;23.200;2023-07-31T03:22:23;27.80;;;24.77;;
1775;SDS011;885;42.626;23.200;2023-07-31T03:24:51;30.00;;;25.00;;
1775;SDS011;885;42.626;23.200;2023-07-31T03:27:18;28.93;;;24.27;;
1775;SDS011;885;42.626;23.200;2023-07-31T03:29:45;30.60;;;25.30;;
1775;SDS011;885;42.626;23.200;2023-07-31T03:32:11;30.23;;;24.73;;
1775;SDS011;885;42.626;23.200;2023-07-31T03:34:38;30.47;;;24.80;;
1775;SDS011;885;42.626;23.200;2023-07-31T03:37:05;28.60;;;25.50;;
1775;SDS011;885;42.626;23.200;2023-07-31T03:39:34;30.50;;;26.30;;
1775;SDS011;885;42.626;23.200;2023-07-31T03:42:02;32.67;;;26.50;;
1775;SDS011;885;42.626;23.200;2023-07-31T03:44:29;34.50;;;27.20;;
1775;SDS011;885;42.626;23.200;2023-07-31T03:46:56;30.27;;;24.80;;
1775;SDS011;885;42.626;23.200;2023-07-31T03:49:23;31.20;;;26.43;;
1775;SDS011;885;42.626;23.200;2023-07-31T03:51:49;31.77;;;25.47;;
1775;SDS011;885;42.626;23.200;2023-07-31T03:54:16;37.20;;;29.10;;
1775;SDS011;885;42.626;23.200;2023-07-31T03:56:43;31.73;;;25.30;;
1775;SDS011;885;42.626;23.200;2023-07-31T03:59:11;28.50;;;24.90;;
1775;SDS011;885;42.626;23.200;2023-07-31T04:01:38;31.13;;;23.13;;
1775;SDS011;885;42.626;23.200;2023-07-31T04:04:05;29.67;;;23.73;;
1775;SDS011;885;42.626;23.200;2023-07-31T04:06:31;29.50;;;24.57;;
1775;SDS011;885;42.626;23.200;2023-07-31T04:08:58;30.87;;;23.67;;
1775;SDS011;885;42.626;23.200;2023-07-31T04:11:25;27.77;;;23.67;;
1775;SDS011;885;42.626;23.200;2023-07-31T04:13:52;33.57;;;25.80;;
1775;SDS011;885;42.626;23.200;2023-07-31T04:16:20;30.07;;;24.77;;
1775;SDS011;885;42.626;23.200;2023-07-31T04:18:47;32.13;;;25.90;;
1775;SDS011;885;42.626;23.200;2023-07-31T04:21:13;29.00;;;22.57;;
1775;SDS011;885;42.626;23.200;2023-07-31T04:23:40;30.73;;;24.17;;
1775;SDS011;885;42.626;23.200;2023-07-31T04:26:07;28.47;;;22.80;;
1775;SDS011;885;42.626;23.200;2023-07-31T04:28:33;30.80;;;24.33;;
1775;SDS011;885;42.626;23.200;2023-07-31T04:31:00;34.60;;;26.87;;
1775;SDS011;885;42.626;23.200;2023-07-31T04:33:28;30.20;;;23.87;;
1775;SDS011;885;42.626;23.200;2023-07-31T04:35:55;30.97;;;24.50;;
1775;SDS011;885;42.626;23.200;2023-07-31T04:38:22;31.13;;;24.80;;
1775;SDS011;885;42.626;23.200;2023-07-31T04:40:48;31.50;;;26.03;;
1775;SDS011;885;42.626;23.200;2023-07-31T04:43:15;27.83;;;21.00;;
1775;SDS011;885;42.626;23.200;2023-07-31T04:45:45;26.80;;;22.10;;
1775;SDS011;885;42.626;23.200;2023-07-31T04:48:13;27.43;;;22.67;;
1775;SDS011;885;42.626;23.200;2023-07-31T04:50:41;27.33;;;21.80;;
1775;SDS011;885;42.626;23.200;2023-07-31T04:53:08;24.53;;;21.53;;
1775;SDS011;885;42.626;23.200;2023-07-31T04:55:35;29.20;;;23.83;;
1775;SDS011;885;42.626;23.200;2023-07-31T04:58:01;27.17;;;21.30;;
1775;SDS011;885;42.626;23.200;2023-07-31T05:00:28;26.00;;;21.80;;
1775;SDS011;885;42.626;23.200;2023-07-31T05:02:55;28.30;;;22.10;;
1775;SDS011;885;42.626;23.200;2023-07-31T05:05:22;27.23;;;22.80;;
1775;SDS011;885;42.626;23.200;2023-07-31T05:07:50;27.13;;;22.10;;
1775;SDS011;885;42.626;23.200;2023-07-31T05:10:17;26.50;;;19.70;;
1775;SDS011;885;42.626;23.200;2023-07-31T05:12:44;18.40;;;16.50;;
1775;SDS011;885;42.626;23.200;2023-07-31T05:15:11;17.33;;;15.53;;
1775;SDS011;885;42.626;23.200;2023-07-31T05:17:38;18.20;;;16.30;;
1775;SDS011;885;42.626;23.200;2023-07-31T05:20:05;17.83;;;15.73;;
1775;SDS011;885;42.626;23.200;2023-07-31T05:22:33;19.90;;;17.80;;
1775;SDS011;885;42.626;23.200;2023-07-31T05:25:01;19.57;;;17.50;;
1775;SDS011;885;42.626;23.200;2023-07-31T05:27:27;20.00;;;17.40;;
1775;SDS011;885;42.626;23.200;2023-07-31T05:29:54;22.03;;;18.10;;
1775;SDS011;885;42.626;23.200;2023-07-31T05:32:21;18.97;;;16.70;;
1775;SDS011;885;42.626;23.200;2023-07-31T05:34:50;19.07;;;17.10;;
1775;SDS011;885;42.626;23.200;2023-07-31T05:37:20;18.53;;;16.53;;
1775;SDS011;885;42.626;23.200;2023-07-31T05:39:47;19.17;;;16.70;;
1775;SDS011;885;42.626;23.200;2023-07-31T05:42:15;17.30;;;15.50;;
1775;SDS011;885;42.626;23.200;2023-07-31T05:44:41;16.73;;;15.00;;
1775;SDS011;885;42.626;23.200;2023-07-31T05:47:08;15.93;;;14.30;;
1775;SDS011;885;42.626;23.200;2023-07-31T05:49:35;17.20;;;15.33;;
1775;SDS011;885;42.626;23.200;2023-07-31T05:52:02;16.50;;;13.07;;
1775;SDS011;885;42.626;23.200;2023-07-31T05:54:29;14.53;;;13.03;;
1775;SDS011;885;42.626;23.200;2023-07-31T05:56:56;13.97;;;12.57;;
1775;SDS011;885;42.626;23.200;2023-07-31T05:59:24;15.50;;;13.93;;
1775;SDS011;885;42.626;23.200;2023-07-31T06:01:51;15.53;;;13.93;;
1775;SDS011;885;42.626;23.200;2023-07-31T06:04:17;15.03;;;13.43;;
1775;SDS011;885;42.626;23.200;2023-07-31T06:06:44;16.10;;;12.93;;
1775;SDS011;885;42.626;23.200;2023-07-31T06:09:11;14.80;;;11.50;;
1775;SDS011;885;42.626;23.200;2023-07-31T06:11:39;12.23;;;11.13;;
1775;SDS011;885;42.626;23.200;2023-07-31T06:14:06;11.33;;;10.13;;
1775;SDS011;885;42.626;23.200;2023-07-31T06:16:34;10.27;;;9.17;;
1775;SDS011;885;42.626;23.200;2023-07-31T06:19:01;8.67;;;7.87;;
1775;SDS011;885;42.626;23.200;2023-07-31T06:21:28;8.80;;;7.90;;
1775;SDS011;885;42.626;23.200;2023-07-31T06:23:55;9.07;;;8.17;;
1775;SDS011;885;42.626;23.200;2023-07-31T06:26:21;10.43;;;9.40;;
1775;SDS011;885;42.626;23.200;2023-07-31T06:28:48;11.60;;;10.50;;
1775;SDS011;885;42.626;23.200;2023-07-31T06:31:15;8.80;;;8.00;;
1775;SDS011;885;42.626;23.200;2023-07-31T06:33:46;8.60;;;7.80;;
1775;SDS011;885;42.626;23.200;2023-07-31T06:36:13;8.37;;;7.57;;
1775;SDS011;885;42.626;23.200;2023-07-31T06:38:40;8.87;;;7.97;;
1775;SDS011;885;42.626;23.200;2023-07-31T06:41:07;7.93;;;7.13;;
1775;SDS011;885;42.626;23.200;2023-07-31T06:43:34;7.77;;;7.03;;
1775;SDS011;885;42.626;23.200;2023-07-31T06:46:04;6.33;;;5.73;;
1775;SDS011;885;42.626;23.200;2023-07-31T06:48:31;8.63;;;6.60;;
1775;SDS011;885;42.626;23.200;2023-07-31T06:50:59;6.27;;;5.67;;
1775;SDS011;885;42.626;23.200;2023-07-31T06:53:26;6.50;;;5.50;;
1775;SDS011;885;42.626;23.200;2023-07-31T06:55:53;7.63;;;6.93;;
1775;SDS011;885;42.626;23.200;2023-07-31T06:58:19;7.30;;;6.70;;
1775;SDS011;885;42.626;23.200;2023-07-31T07:00:46;6.70;;;6.10;;
1775;SDS011;885;42.626;23.200;2023-07-31T07:03:14;7.43;;;6.73;;
1775;SDS011;885;42.626;23.200;2023-07-31T07:05:41;5.47;;;4.97;;
1775;SDS011;885;42.626;23.200;2023-07-31T07:08:09;4.37;;;3.97;;
1775;SDS011;885;42.626;23.200;2023-07-31T07:10:36;4.57;;;4.10;;
1775;SDS011;885;42.626;23.200;2023-07-31T07:13:03;4.07;;;3.67;;
1775;SDS011;885;42.626;23.200;2023-07-31T07:15:30;4.37;;;3.97;;
1775;SDS011;885;42.626;23.200;2023-07-31T07:17:56;3.40;;;3.10;;
1775;SDS011;885;42.626;23.200;2023-07-31T07:20:23;4.40;;;3.20;;
1775;SDS011;885;42.626;23.200;2023-07-31T07:22:50;4.13;;;2.90;;
1775;SDS011;885;42.626;23.200;2023-07-31T07:25:18;3.47;;;3.03;;
1775;SDS011;885;42.626;23.200;2023-07-31T07:27:45;3.40;;;3.10;;
1775;SDS011;885;42.626;23.200;2023-07-31T07:30:11;4.03;;;3.57;;
1775;SDS011;885;42.626;23.200;2023-07-31T07:32:39;3.60;;;3.30;;
1775;SDS011;885;42.626;23.200;2023-07-31T07:35:06;2.90;;;2.60;;
1775;SDS011;885;42.626;23.200;2023-07-31T07:37:33;3.57;;;3.07;;
1775;SDS011;885;42.626;23.200;2023-07-31T07:40:00;3.00;;;2.67;;
1775;SDS011;885;42.626;23.200;2023-07-31T07:42:28;3.30;;;2.73;;
1775;SDS011;885;42.626;23.200;2023-07-31T07:44:55;3.00;;;2.70;;
1775;SDS011;885;42.626;23.200;2023-07-31T07:47:21;3.33;;;2.97;;
1775;SDS011;885;42.626;23.200;2023-07-31T07:49:48;3.60;;;3.10;;
1775;SDS011;885;42.626;23.200;2023-07-31T07:52:15;3.73;;;3.30;;
1775;SDS011;885;42.626;23.200;2023-07-31T07:54:41;2.90;;;2.60;;
1775;SDS011;885;42.626;23.200;2023-07-31T07:57:08;4.13;;;2.73;;
1775;SDS011;885;42.626;23.200;2023-07-31T07:59:36;4.97;;;2.63;;
1775;SDS011;885;42.626;23.200;2023-07-31T08:02:03;3.50;;;2.63;;
1775;SDS011;885;42.626;23.200;2023-07-31T08:04:30;2.70;;;2.50;;
1775;SDS011;885;42.626;23.200;2023-07-31T08:06:57;4.40;;;2.80;;
1775;SDS011;885;42.626;23.200;2023-07-31T08:09:26;5.03;;;3.07;;
1775;SDS011;885;42.626;23.200;2023-07-31T08:11:52;3.33;;;3.00;;
1775;SDS011;885;42.626;23.200;2023-07-31T08:14:19;3.10;;;2.80;;
1775;SDS011;885;42.626;23.200;2023-07-31T08:16:47;3.20;;;2.90;;
1775;SDS011;885;42.626;23.200;2023-07-31T08:19:14;5.40;;;2.90;;
1775;SDS011;885;42.626;23.200;2023-07-31T08:21:41;3.13;;;2.83;;
1775;SDS011;885;42.626;23.200;2023-07-31T08:45:42;3.53;;;2.80;;
1775;SDS011;885;42.626;23.200;2023-07-31T08:48:10;3.23;;;2.93;;
1775;SDS011;885;42.626;23.200;2023-07-31T08:50:38;2.87;;;2.67;;
1775;SDS011;885;42.626;23.200;2023-07-31T08:53:05;2.90;;;2.70;;
1775;SDS011;885;42.626;23.200;2023-07-31T08:55:32;3.30;;;3.00;;
1775;SDS011;885;42.626;23.200;2023-07-31T08:57:59;4.73;;;2.80;;
1775;SDS011;885;42.626;23.200;2023-07-31T09:00:28;3.67;;;3.37;;
1775;SDS011;885;42.626;23.200;2023-07-31T09:02:59;3.50;;;2.70;;
1775;SDS011;885;42.626;23.200;2023-07-31T09:05:28;2.60;;;2.40;;
1775;SDS011;885;42.626;23.200;2023-07-31T09:07:57;2.70;;;2.50;;
1775;SDS011;885;42.626;23.200;2023-07-31T09:10:24;3.60;;;2.80;;
1775;SDS011;885;42.626;23.200;2023-07-31T09:12:51;3.53;;;2.90;;
1775;SDS011;885;42.626;23.200;2023-07-31T09:15:18;2.90;;;2.53;;
1775;SDS011;885;42.626;23.200;2023-07-31T09:17:46;3.53;;;2.53;;
1775;SDS011;885;42.626;23.200;2023-07-31T09:20:14;2.50;;;2.30;;
1775;SDS011;885;42.626;23.200;2023-07-31T09:22:43;3.03;;;2.73;;
1775;SDS011;885;42.626;23.200;2023-07-31T09:25:14;3.47;;;3.17;;
1775;SDS011;885;42.626;23.200;2023-07-31T09:58:55;3.20;;;2.70;;
1775;SDS011;885;42.626;23.200;2023-07-31T10:01:23;3.30;;;3.00;;
1775;SDS011;885;42.626;23.200;2023-07-31T10:03:49;3.23;;;2.93;;
1775;SDS011;885;42.626;23.200;2023-07-31T10:06:16;3.53;;;3.23;;
1775;SDS011;885;42.626;23.200;2023-07-31T10:08:44;4.33;;;2.83;;
1775;SDS011;885;42.626;23.200;2023-07-31T10:11:13;2.80;;;2.60;;
1775;SDS011;885;42.626;23.200;2023-07-31T10:13:42;2.83;;;2.63;;
1775;SDS011;885;42.626;23.200;2023-07-31T10:16:10;2.97;;;2.57;;
1775;SDS011;885;42.626;23.200;2023-07-31T10:18:39;2.77;;;2.43;;
1775;SDS011;885;42.626;23.200;2023-07-31T10:21:07;3.23;;;2.93;;
1775;SDS011;885;42.626;23.200;2023-07-31T10:23:34;4.20;;;3.80;;
1775;SDS011;885;42.626;23.200;2023-07-31T10:26:01;3.87;;;2.90;;
1775;SDS011;885;42.626;23.200;2023-07-31T10:28:29;2.43;;;2.23;;
1775;SDS011;885;42.626;23.200;2023-07-31T10:30:58;3.40;;;2.80;;
1775;SDS011;885;42.626;23.200;2023-07-31T10:33:26;2.40;;;2.20;;
1775;SDS011;885;42.626;23.200;2023-07-31T10:38:38;2.30;;;2.10;;
1775;SDS011;885;42.626;23.200;2023-07-31T10:41:07;3.10;;;2.80;;
1775;SDS011;885;42.626;23.200;2023-07-31T10:43:34;3.10;;;2.80;;
1775;SDS011;885;42.626;23.200;2023-07-31T10:46:05;2.93;;;2.60;;
1775;SDS011;885;42.626;23.200;2023-07-31T10:48:35;2.67;;;2.40;;
1775;SDS011;885;42.626;23.200;2023-07-31T10:51:06;2.80;;;2.60;;
1775;SDS011;885;42.626;23.200;2023-07-31T10:53:34;3.00;;;2.43;;
1775;SDS011;885;42.626;23.200;2023-07-31T10:56:01;3.07;;;2.77;;
1775;SDS011;885;42.626;23.200;2023-07-31T10:58:29;2.63;;;2.30;;
1775;SDS011;885;42.626;23.200;2023-07-31T11:00:57;5.87;;;2.60;;
1775;SDS011;885;42.626;23.200;2023-07-31T11:03:25;2.80;;;2.43;;
1775;SDS011;885;42.626;23.200;2023-07-31T11:05:59;2.87;;;2.27;;
1775;SDS011;885;42.626;23.200;2023-07-31T11:08:28;3.03;;;2.53;;
1775;SDS011;885;42.626;23.200;2023-07-31T11:11:06;2.37;;;2.10;;
1775;SDS011;885;42.626;23.200;2023-07-31T11:13:34;3.83;;;2.17;;
1775;SDS011;885;42.626;23.200;2023-07-31T11:16:06;2.37;;;2.17;;
1775;SDS011;885;42.626;23.200;2023-07-31T11:18:34;2.37;;;2.17;;
1775;SDS011;885;42.626;23.200;2023-07-31T11:21:02;3.90;;;2.47;;
1775;SDS011;885;42.626;23.200;2023-07-31T11:23:30;2.60;;;2.30;;
1775;SDS011;885;42.626;23.200;2023-07-31T11:25:58;2.93;;;2.03;;
1775;SDS011;885;42.626;23.200;2023-07-31T11:28:30;2.20;;;2.00;;
1775;SDS011;885;42.626;23.200;2023-07-31T11:30:59;2.33;;;2.00;;
1775;SDS011;885;42.626;23.200;2023-07-31T11:33:26;4.00;;;2.30;;
1775;SDS011;885;42.626;23.200;2023-07-31T11:35:53;2.47;;;2.27;;
1775;SDS011;885;42.626;23.200;2023-07-31T11:38:24;3.17;;;2.87;;
1775;SDS011;885;42.626;23.200;2023-07-31T11:40:52;3.20;;;2.90;;
1775;SDS011;885;42.626;23.200;2023-07-31T11:43:19;3.20;;;2.90;;
1775;SDS011;885;42.626;23.200;2023-07-31T11:45:47;3.13;;;2.80;;
1775;SDS011;885;42.626;23.200;2023-07-31T11:48:18;3.20;;;2.90;;
1775;SDS011;885;42.626;23.200;2023-07-31T11:50:47;3.13;;;2.83;;
1775;SDS011;885;42.626;23.200;2023-07-31T11:53:15;2.80;;;2.40;;
1775;SDS011;885;42.626;23.200;2023-07-31T11:55:46;3.40;;;3.10;;
1775;SDS011;885;42.626;23.200;2023-07-31T11:58:13;3.30;;;2.80;;
1775;SDS011;885;42.626;23.200;2023-07-31T12:00:42;3.13;;;2.83;;
1775;SDS011;885;42.626;23.200;2023-07-31T12:03:09;3.33;;;3.03;;
1775;SDS011;885;42.626;23.200;2023-07-31T12:05:36;3.40;;;3.10;;
1775;SDS011;885;42.626;23.200;2023-07-31T12:08:08;4.20;;;3.50;;
1775;SDS011;885;42.626;23.200;2023-07-31T12:10:36;3.13;;;2.90;;
1775;SDS011;885;42.626;23.200;2023-07-31T12:13:07;3.93;;;3.53;;
1775;SDS011;885;42.626;23.200;2023-07-31T12:15:39;4.10;;;3.70;;
1775;SDS011;885;42.626;23.200;2023-07-31T12:18:10;3.80;;;3.47;;
1775;SDS011;885;42.626;23.200;2023-07-31T12:20:41;3.53;;;3.23;;
1775;SDS011;885;42.626;23.200;2023-07-31T12:23:12;4.80;;;4.30;;
1775;SDS011;885;42.626;23.200;2023-07-31T12:25:41;4.43;;;4.03;;
1775;SDS011;885;42.626;23.200;2023-07-31T12:28:09;4.93;;;4.40;;
1775;SDS011;885;42.626;23.200;2023-07-31T12:30:38;4.57;;;4.17;;
1775;SDS011;885;42.626;23.200;2023-07-31T12:33:06;5.30;;;4.80;;
1775;SDS011;885;42.626;23.200;2023-07-31T12:35:37;6.83;;;5.33;;
1775;SDS011;885;42.626;23.200;2023-07-31T12:38:04;5.90;;;5.40;;
1775;SDS011;885;42.626;23.200;2023-07-31T12:40:31;7.30;;;6.60;;
1775;SDS011;885;42.626;23.200;2023-07-31T12:43:00;5.90;;;5.30;;
1775;SDS011;885;42.626;23.200;2023-07-31T12:45:30;6.67;;;5.77;;
1775;SDS011;885;42.626;23.200;2023-07-31T12:47:57;6.50;;;5.90;;
1775;SDS011;885;42.626;23.200;2023-07-31T12:50:25;6.87;;;6.27;;
1775;SDS011;885;42.626;23.200;2023-07-31T12:52:52;6.30;;;5.70;;
1775;SDS011;885;42.626;23.200;2023-07-31T12:55:20;7.10;;;6.40;;
1775;SDS011;885;42.626;23.200;2023-07-31T12:57:47;6.97;;;6.27;;
1775;SDS011;885;42.626;23.200;2023-07-31T13:00:14;6.67;;;5.83;;
1775;SDS011;885;42.626;23.200;2023-07-31T13:02:42;7.23;;;6.60;;
1775;SDS011;885;42.626;23.200;2023-07-31T13:05:09;6.53;;;5.93;;
1775;SDS011;885;42.626;23.200;2023-07-31T13:07:36;7.97;;;6.93;;
1775;SDS011;885;42.626;23.200;2023-07-31T13:10:04;7.43;;;6.73;;
1775;SDS011;885;42.626;23.200;2023-07-31T13:12:31;7.17;;;6.47;;
1775;SDS011;885;42.626;23.200;2023-07-31T13:14:58;7.67;;;7.07;;
1775;SDS011;885;42.626;23.200;2023-07-31T13:17:24;7.60;;;6.90;;
1775;SDS011;885;42.626;23.200;2023-07-31T13:19:53;8.47;;;7.67;;
1775;SDS011;885;42.626;23.200;2023-07-31T13:22:20;7.43;;;6.80;;
1775;SDS011;885;42.626;23.200;2023-07-31T13:24:46;7.87;;;7.17;;
1775;SDS011;885;42.626;23.200;2023-07-31T13:27:13;6.97;;;6.37;;
1775;SDS011;885;42.626;23.200;2023-07-31T13:29:42;6.80;;;6.20;;
1775;SDS011;885;42.626;23.200;2023-07-31T13:32:08;6.87;;;6.27;;
1775;SDS011;885;42.626;23.200;2023-07-31T13:34:35;6.67;;;6.07;;
1775;SDS011;885;42.626;23.200;2023-07-31T13:37:03;7.03;;;6.43;;
1775;SDS011;885;42.626;23.200;2023-07-31T13:39:31;7.50;;;6.90;;
1775;SDS011;885;42.626;23.200;2023-07-31T13:41:58;7.77;;;7.07;;
1775;SDS011;885;42.626;23.200;2023-07-31T13:44:24;6.50;;;6.00;;
1775;SDS011;885;42.626;23.200;2023-07-31T13:46:52;5.90;;;5.37;;
1775;SDS011;885;42.626;23.200;2023-07-31T13:49:19;6.57;;;5.97;;
1775;SDS011;885;42.626;23.200;2023-07-31T13:51:45;6.60;;;6.00;;
1775;SDS011;885;42.626;23.200;2023-07-31T13:54:13;7.40;;;5.77;;
1775;SDS011;885;42.626;23.200;2023-07-31T13:56:41;6.27;;;5.77;;
1775;SDS011;885;42.626;23.200;2023-07-31T13:59:09;5.27;;;4.80;;
1775;SDS011;885;42.626;23.200;2023-07-31T14:01:36;5.17;;;4.67;;
1775;SDS011;885;42.626;23.200;2023-07-31T14:04:03;4.70;;;4.30;;
1775;SDS011;885;42.626;23.200;2023-07-31T14:06:30;5.33;;;4.90;;
1775;SDS011;885;42.626;23.200;2023-07-31T14:08:57;5.47;;;4.97;;
1775;SDS011;885;42.626;23.200;2023-07-31T14:11:25;5.20;;;4.80;;
1775;SDS011;885;42.626;23.200;2023-07-31T14:13:52;4.87;;;4.47;;
1775;SDS011;885;42.626;23.200;2023-07-31T14:16:19;5.37;;;4.97;;
1775;SDS011;885;42.626;23.200;2023-07-31T14:18:46;4.60;;;4.20;;
1775;SDS011;885;42.626;23.200;2023-07-31T14:21:12;4.40;;;4.10;;
1775;SDS011;885;42.626;23.200;2023-07-31T14:23:39;5.20;;;4.80;;
1775;SDS011;885;42.626;23.200;2023-07-31T14:26:06;4.33;;;3.93;;
1775;SDS011;885;42.626;23.200;2023-07-31T14:28:34;4.93;;;4.53;;
1775;SDS011;885;42.626;23.200;2023-07-31T14:31:01;4.73;;;4.33;;
1775;SDS011;885;42.626;23.200;2023-07-31T14:33:28;4.43;;;4.03;;
1775;SDS011;885;42.626;23.200;2023-07-31T14:35:55;5.00;;;4.60;;
1775;SDS011;885;42.626;23.200;2023-07-31T14:38:21;4.70;;;4.30;;
1775;SDS011;885;42.626;23.200;2023-07-31T14:40:48;5.10;;;4.70;;
1775;SDS011;885;42.626;23.200;2023-07-31T14:43:15;4.77;;;4.27;;
1775;SDS011;885;42.626;23.200;2023-07-31T14:45:43;5.20;;;4.80;;
1775;SDS011;885;42.626;23.200;2023-07-31T14:48:11;4.93;;;4.53;;
1775;SDS011;885;42.626;23.200;2023-07-31T14:50:38;5.30;;;4.83;;
1775;SDS011;885;42.626;23.200;2023-07-31T14:53:05;5.10;;;4.67;;
1775;SDS011;885;42.626;23.200;2023-07-31T14:55:31;5.10;;;4.70;;
1775;SDS011;885;42.626;23.200;2023-07-31T14:57:58;3.97;;;3.53;;
1775;SDS011;885;42.626;23.200;2023-07-31T15:00:25;4.30;;;3.90;;
1775;SDS011;885;42.626;23.200;2023-07-31T15:02:53;5.10;;;3.90;;
1775;SDS011;885;42.626;23.200;2023-07-31T15:05:20;4.17;;;3.87;;
1775;SDS011;885;42.626;23.200;2023-07-31T15:07:46;4.00;;;3.70;;
1775;SDS011;885;42.626;23.200;2023-07-31T15:10:13;3.77;;;3.43;;
1775;SDS011;885;42.626;23.200;2023-07-31T15:12:41;5.37;;;3.93;;
1775;SDS011;885;42.626;23.200;2023-07-31T15:15:08;3.80;;;3.50;;
1775;SDS011;885;42.626;23.200;2023-07-31T15:17:35;4.60;;;4.20;;
1775;SDS011;885;42.626;23.200;2023-07-31T15:20:04;3.80;;;3.50;;
1775;SDS011;885;42.626;23.200;2023-07-31T15:22:32;8.17;;;4.20;;
1775;SDS011;885;42.626;23.200;2023-07-31T15:24:58;4.00;;;3.20;;
1775;SDS011;885;42.626;23.200;2023-07-31T15:27:25;4.70;;;3.40;;
1775;SDS011;885;42.626;23.200;2023-07-31T15:29:52;3.70;;;3.40;;
1775;SDS011;885;42.626;23.200;2023-07-31T15:32:19;3.80;;;3.40;;
1775;SDS011;885;42.626;23.200;2023-07-31T15:34:47;4.20;;;3.80;;
1775;SDS011;885;42.626;23.200;2023-07-31T15:37:15;3.50;;;3.20;;
1775;SDS011;885;42.626;23.200;2023-07-31T15:39:44;4.03;;;3.20;;
1775;SDS011;885;42.626;23.200;2023-07-31T15:42:10;4.83;;;3.13;;
1775;SDS011;885;42.626;23.200;2023-07-31T15:44:37;3.80;;;3.50;;
1775;SDS011;885;42.626;23.200;2023-07-31T15:47:04;3.60;;;3.30;;
1775;SDS011;885;42.626;23.200;2023-07-31T15:49:31;3.20;;;2.90;;
1775;SDS011;885;42.626;23.200;2023-07-31T15:51:58;3.17;;;2.87;;
1775;SDS011;885;42.626;23.200;2023-07-31T15:54:26;3.83;;;3.50;;
1775;SDS011;885;42.626;23.200;2023-07-31T15:56:53;3.17;;;2.87;;
1775;SDS011;885;42.626;23.200;2023-07-31T15:59:20;3.10;;;2.80;;
1775;SDS011;885;42.626;23.200;2023-07-31T16:01:46;2.77;;;2.57;;
1775;SDS011;885;42.626;23.200;2023-07-31T16:04:13;4.13;;;3.83;;